createdAt,value
2018-03-01T00:01:40.566Z,-7.12
2018-03-01T00:04:08.193Z,-7.04
2018-03-01T00:06:35.742Z,-7.16
2018-03-01T00:09:03.797Z,-7.27
2018-03-01T00:11:31.347Z,-7.11
2018-03-01T00:13:59.231Z,-7.24
2018-03-01T00:16:26.821Z,-7.26
2018-03-01T00:18:54.640Z,-7.27
2018-03-01T00:21:22.189Z,-7.41
2018-03-01T00:23:49.830Z,-7.56
2018-03-01T00:26:17.544Z,-7.44
2018-03-01T00:28:45.661Z,-7.53
2018-03-01T00:31:13.210Z,-7.46
2018-03-01T00:33:40.873Z,-7.54
2018-03-01T00:36:08.503Z,-7.67
2018-03-01T00:38:36.044Z,-7.60
2018-03-01T00:41:03.620Z,-7.55
2018-03-01T00:43:31.324Z,-7.57
2018-03-01T00:45:58.870Z,-7.61
2018-03-01T00:48:26.463Z,-7.68
2018-03-01T00:50:56.015Z,-7.78
2018-03-01T00:53:23.623Z,-7.75
2018-03-01T00:55:51.645Z,-7.90
2018-03-01T00:58:19.788Z,-7.94
2018-03-01T01:00:47.380Z,-8.03
2018-03-01T01:03:14.914Z,-7.96
2018-03-01T01:05:42.639Z,-8.03
2018-03-01T01:08:10.195Z,-8.13
2018-03-01T01:10:38.685Z,-8.06
2018-03-01T01:13:06.278Z,-8.04
2018-03-01T01:15:33.975Z,-7.93
2018-03-01T01:18:01.586Z,-8.07
2018-03-01T01:20:29.329Z,-8.16
2018-03-01T01:22:57.457Z,-8.26
2018-03-01T01:25:25.014Z,-8.18
2018-03-01T01:27:52.630Z,-8.16
2018-03-01T01:30:20.248Z,-8.10
2018-03-01T01:32:47.802Z,-8.03
2018-03-01T01:35:15.369Z,-8.31
2018-03-01T01:37:42.918Z,-8.37
2018-03-01T01:40:10.629Z,-8.29
2018-03-01T01:42:38.182Z,-8.39
2018-03-01T01:45:05.827Z,-8.37
2018-03-01T01:47:33.460Z,-8.47
2018-03-01T01:50:01.458Z,-8.37
2018-03-01T01:52:29.043Z,-8.44
2018-03-01T01:54:56.854Z,-8.51
2018-03-01T01:57:24.419Z,-8.50
2018-03-01T01:59:52.818Z,-8.53
2018-03-01T02:02:20.359Z,-8.50
2018-03-01T02:04:47.985Z,-8.58
2018-03-01T02:07:15.629Z,-8.56
2018-03-01T02:09:46.319Z,-8.46
2018-03-01T02:12:13.844Z,-8.44
2018-03-01T02:14:41.445Z,-8.58
2018-03-01T02:17:09.217Z,-8.65
2018-03-01T02:19:36.905Z,-8.68
2018-03-01T02:22:04.737Z,-8.75
2018-03-01T02:24:33.010Z,-8.80
2018-03-01T02:27:00.642Z,-8.72
2018-03-01T02:29:28.248Z,-8.72
2018-03-01T02:31:55.890Z,-8.76
2018-03-01T02:34:23.424Z,-8.82
2018-03-01T02:36:50.988Z,-8.78
2018-03-01T02:39:18.631Z,-8.73
2018-03-01T02:41:46.259Z,-8.86
2018-03-01T02:44:13.891Z,-8.85
2018-03-01T02:46:41.704Z,-8.75
2018-03-01T02:49:10.090Z,-8.83
2018-03-01T02:51:37.842Z,-8.73
2018-03-01T02:54:05.513Z,-8.81
2018-03-01T02:56:33.524Z,-8.76
2018-03-01T02:59:01.273Z,-8.69
2018-03-01T03:01:28.903Z,-8.76
2018-03-01T03:03:56.564Z,-8.83
2018-03-01T03:06:24.350Z,-8.89
2018-03-01T03:08:52.084Z,-8.91
2018-03-01T03:11:19.697Z,-8.85
2018-03-01T03:13:47.230Z,-8.64
2018-03-01T03:16:15.072Z,-8.82
2018-03-01T03:18:42.728Z,-8.85
2018-03-01T03:21:10.475Z,-8.84
2018-03-01T03:23:38.084Z,-8.76
2018-03-01T03:26:05.669Z,-8.72
2018-03-01T03:28:33.410Z,-8.86
2018-03-01T03:31:01.059Z,-8.82
2018-03-01T03:33:28.928Z,-8.77
2018-03-01T03:35:56.690Z,-8.80
2018-03-01T03:38:24.241Z,-8.84
2018-03-01T03:40:51.803Z,-8.98
2018-03-01T03:43:19.474Z,-8.98
2018-03-01T03:45:47.144Z,-8.94
2018-03-01T03:48:15.675Z,-8.88
2018-03-01T03:50:43.221Z,-8.90
2018-03-01T03:53:10.764Z,-8.83
2018-03-01T03:55:39.353Z,-8.75
2018-03-01T03:58:06.940Z,-8.83
2018-03-01T04:00:34.474Z,-8.86
2018-03-01T04:03:02.200Z,-8.81
2018-03-01T04:05:29.740Z,-8.76
2018-03-01T04:07:57.405Z,-8.80
2018-03-01T04:10:25.115Z,-8.66
2018-03-01T04:12:53.494Z,-8.41
2018-03-01T04:15:21.144Z,-8.50
2018-03-01T04:17:48.760Z,-8.64
2018-03-01T04:20:16.289Z,-8.72
2018-03-01T04:22:43.908Z,-8.48
2018-03-01T04:25:12.381Z,-8.66
2018-03-01T04:27:40.051Z,-8.52
2018-03-01T04:30:07.649Z,-8.52
2018-03-01T04:32:35.283Z,-8.41
2018-03-01T04:35:02.831Z,-8.44
2018-03-01T04:37:30.444Z,-8.38
2018-03-01T04:39:57.978Z,-8.42
2018-03-01T04:42:25.598Z,-8.14
2018-03-01T04:47:20.130Z,-8.24
2018-03-01T04:49:47.823Z,-8.19
2018-03-01T04:52:15.470Z,-8.14
2018-03-01T04:54:43.031Z,-7.94
2018-03-01T04:57:10.830Z,-8.12
2018-03-01T04:59:38.539Z,-8.20
2018-03-01T05:02:06.086Z,-8.25
2018-03-01T05:04:33.640Z,-8.10
2018-03-01T05:07:01.321Z,-8.11
2018-03-01T05:09:28.883Z,-7.90
2018-03-01T05:11:56.682Z,-7.85
2018-03-01T05:14:24.264Z,-8.10
2018-03-01T05:16:52.703Z,-8.06
2018-03-01T05:19:20.484Z,-8.10
2018-03-01T05:21:48.191Z,-8.05
2018-03-01T05:24:15.939Z,-7.97
2018-03-01T05:26:43.790Z,-7.84
2018-03-01T05:29:11.326Z,-7.80
2018-03-01T05:31:38.921Z,-7.82
2018-03-01T05:34:06.482Z,-7.98
2018-03-01T05:36:34.064Z,-8.00
2018-03-01T05:39:01.685Z,-7.91
2018-03-01T05:41:29.491Z,-7.91
2018-03-01T05:43:57.345Z,-7.95
2018-03-01T05:46:25.664Z,-8.03
2018-03-01T05:48:53.905Z,-7.96
2018-03-01T05:51:21.524Z,-7.85
2018-03-01T05:53:49.420Z,-7.92
2018-03-01T05:56:17.980Z,-8.04
2018-03-01T05:58:45.643Z,-7.86
2018-03-01T06:01:13.270Z,-7.99
2018-03-01T06:03:40.914Z,-8.03
2018-03-01T06:06:08.611Z,-7.87
2018-03-01T06:08:36.286Z,-7.92
2018-03-01T06:11:03.823Z,-7.96
2018-03-01T06:13:31.838Z,-8.02
2018-03-01T06:16:00.125Z,-7.79
2018-03-01T06:18:27.780Z,-8.01
2018-03-01T06:20:55.355Z,-7.81
2018-03-01T06:23:22.985Z,-7.81
2018-03-01T06:25:50.548Z,-7.66
2018-03-01T06:28:18.371Z,-7.88
2018-03-01T06:30:46.322Z,-7.68
2018-03-01T06:33:15.020Z,-7.72
2018-03-01T06:35:42.608Z,-7.69
2018-03-01T06:38:10.161Z,-7.75
2018-03-01T06:40:37.840Z,-7.67
2018-03-01T06:43:05.382Z,-7.65
2018-03-01T06:45:33.809Z,-7.44
2018-03-01T06:48:01.539Z,-7.59
2018-03-01T06:50:29.246Z,-7.63
2018-03-01T06:52:57.018Z,-7.75
2018-03-01T06:55:24.918Z,-7.70
2018-03-01T06:57:52.464Z,-7.65
2018-03-01T07:00:20.035Z,-7.64
2018-03-01T07:02:47.659Z,-7.46
2018-03-01T07:05:15.345Z,-7.41
2018-03-01T07:07:43.459Z,-7.52
2018-03-01T07:10:11.135Z,-7.46
2018-03-01T07:12:38.760Z,-7.42
2018-03-01T07:15:06.424Z,-7.47
2018-03-01T07:17:34.134Z,-7.34
2018-03-01T07:20:01.692Z,-7.27
2018-03-01T07:22:29.692Z,-7.16
2018-03-01T07:24:57.513Z,-7.09
2018-03-01T07:27:25.057Z,-6.93
2018-03-01T07:29:52.691Z,-7.07
2018-03-01T07:32:20.240Z,-7.06
2018-03-01T07:34:47.963Z,-6.94
2018-03-01T07:37:15.794Z,-6.68
2018-03-01T07:39:43.339Z,-6.91
2018-03-01T07:42:11.025Z,-6.73
2018-03-01T07:44:39.649Z,-6.91
2018-03-01T07:47:07.451Z,-6.61
2018-03-01T07:49:35.238Z,-6.57
2018-03-01T07:52:03.123Z,-6.40
2018-03-01T07:54:30.660Z,-6.13
2018-03-01T07:56:58.335Z,-6.60
2018-03-01T07:59:26.005Z,-6.37
2018-03-01T08:01:53.605Z,-6.31
2018-03-01T08:04:21.402Z,-6.21
2018-03-01T08:06:49.993Z,-6.37
2018-03-01T08:09:17.940Z,-6.26
2018-03-01T08:11:45.535Z,-6.37
2018-03-01T08:14:13.204Z,-6.26
2018-03-01T08:16:40.753Z,-6.33
2018-03-01T08:19:08.319Z,-6.19
2018-03-01T08:21:36.085Z,-6.11
2018-03-01T08:24:03.878Z,-6.18
2018-03-01T08:26:31.959Z,-6.18
2018-03-01T08:28:59.495Z,-6.13
2018-03-01T08:31:27.129Z,-6.15
2018-03-01T08:33:54.845Z,-5.89
2018-03-01T08:36:22.473Z,-5.99
2018-03-01T08:38:51.050Z,-5.86
2018-03-01T08:41:18.670Z,-5.74
2018-03-01T08:43:46.316Z,-5.26
2018-03-01T08:46:14.114Z,-5.17
2018-03-01T08:48:41.748Z,-5.66
2018-03-01T08:51:09.476Z,-5.47
2018-03-01T08:53:37.025Z,-5.61
2018-03-01T08:56:06.099Z,-5.71
2018-03-01T08:58:33.663Z,-5.53
2018-03-01T09:01:01.470Z,-5.34
2018-03-01T09:03:29.325Z,-5.48
2018-03-01T09:05:56.971Z,-5.07
2018-03-01T09:08:24.922Z,-5.16
2018-03-01T09:10:52.565Z,-5.34
2018-03-01T09:13:20.261Z,-4.68
2018-03-01T09:15:49.625Z,-4.57
2018-03-01T09:18:17.285Z,-4.49
2018-03-01T09:20:44.894Z,-4.76
2018-03-01T09:23:12.460Z,-4.47
2018-03-01T09:25:40.004Z,-4.24
2018-03-01T09:28:07.781Z,-4.59
2018-03-01T09:30:35.397Z,-3.75
2018-03-01T09:33:03.148Z,-3.37
2018-03-01T09:35:30.881Z,-3.38
2018-03-01T09:37:58.453Z,-3.34
2018-03-01T09:40:26.100Z,-3.42
2018-03-01T09:42:53.815Z,-2.91
2018-03-01T09:45:21.758Z,-3.14
2018-03-01T09:47:49.331Z,-3.14
2018-03-01T09:50:16.912Z,-2.55
2018-03-01T09:52:44.695Z,-2.94
2018-03-01T09:55:13.234Z,-3.26
2018-03-01T09:57:40.955Z,-2.06
2018-03-01T10:00:08.486Z,-3.42
2018-03-01T10:02:36.453Z,-3.54
2018-03-01T10:05:04.356Z,-3.05
2018-03-01T10:07:31.903Z,-3.41
2018-03-01T10:09:59.713Z,-3.62
2018-03-01T10:12:27.455Z,-3.22
2018-03-01T10:14:55.449Z,-2.50
2018-03-01T10:17:23.314Z,-2.14
2018-03-01T10:19:50.879Z,-2.76
2018-03-01T10:22:18.600Z,-2.65
2018-03-01T10:24:46.136Z,-2.86
2018-03-01T10:27:13.690Z,-3.14
2018-03-01T10:29:47.515Z,-1.84
2018-03-01T10:32:15.290Z,-1.86
2018-03-01T10:34:42.953Z,-1.95
2018-03-01T10:37:10.612Z,-1.86
2018-03-01T10:39:38.174Z,-1.70
2018-03-01T10:42:05.856Z,0.06
2018-03-01T10:44:33.475Z,0.05
2018-03-01T10:47:01.095Z,-0.31
2018-03-01T10:49:28.906Z,-0.90
2018-03-01T10:51:56.736Z,-1.40
2018-03-01T10:54:24.310Z,-1.24
2018-03-01T10:56:51.920Z,-0.14
2018-03-01T10:59:19.569Z,0.87
2018-03-01T11:01:52.131Z,2.90
2018-03-01T11:04:19.895Z,4.47
2018-03-01T11:06:47.654Z,2.98
2018-03-01T11:09:15.594Z,2.65
2018-03-01T11:11:43.180Z,3.21
2018-03-01T11:14:10.796Z,3.07
2018-03-01T11:16:38.377Z,2.19
2018-03-01T11:19:06.835Z,3.43
2018-03-01T11:21:34.449Z,1.95
2018-03-01T11:24:02.202Z,2.38
2018-03-01T11:26:30.525Z,3.16
2018-03-01T11:28:58.171Z,2.76
2018-03-01T11:31:25.844Z,3.68
2018-03-01T11:33:53.544Z,3.80
2018-03-01T11:36:21.388Z,2.94
2018-03-01T11:38:48.948Z,2.70
2018-03-01T11:41:16.565Z,4.44
2018-03-01T11:43:44.498Z,2.88
2018-03-01T11:46:12.450Z,2.93
2018-03-01T11:48:40.240Z,3.07
2018-03-01T11:51:07.872Z,3.17
2018-03-01T11:53:35.855Z,3.94
2018-03-01T11:56:03.694Z,3.51
2018-03-01T11:58:31.698Z,3.38
2018-03-01T12:00:59.374Z,4.49
2018-03-01T12:03:27.095Z,4.02
2018-03-01T12:05:54.622Z,2.90
2018-03-01T12:08:22.329Z,3.53
2018-03-01T12:10:49.880Z,4.57
2018-03-01T12:13:17.800Z,5.27
2018-03-01T12:15:45.475Z,4.53
2018-03-01T12:18:13.149Z,5.13
2018-03-01T12:20:40.699Z,3.98
2018-03-01T12:23:08.251Z,4.64
2018-03-01T12:25:35.949Z,4.54
2018-03-01T12:28:03.458Z,6.05
2018-03-01T12:30:31.228Z,3.86
2018-03-01T12:32:58.769Z,2.23
2018-03-01T12:35:26.446Z,2.90
2018-03-01T12:37:54.164Z,2.99
2018-03-01T12:40:21.830Z,1.75
2018-03-01T12:42:49.477Z,2.06
2018-03-01T12:45:17.592Z,2.09
2018-03-01T12:47:45.454Z,2.21
2018-03-01T12:50:13.229Z,2.52
2018-03-01T12:52:40.919Z,1.54
2018-03-01T12:55:08.668Z,2.26
2018-03-01T12:57:36.375Z,3.16
2018-03-01T13:00:04.349Z,2.23
2018-03-01T13:02:32.740Z,3.57
2018-03-01T13:05:00.313Z,5.10
2018-03-01T13:07:27.955Z,4.21
2018-03-01T13:09:56.062Z,4.18
2018-03-01T13:12:24.529Z,3.13
2018-03-01T13:14:52.100Z,3.49
2018-03-01T13:17:19.734Z,3.39
2018-03-01T13:19:47.319Z,1.67
2018-03-01T13:22:14.954Z,0.97
2018-03-01T13:24:42.685Z,0.71
2018-03-01T13:27:10.456Z,0.86
2018-03-01T13:29:38.188Z,0.85
2018-03-01T13:35:27.405Z,0.83
2018-03-01T13:37:54.964Z,1.04
2018-03-01T13:40:22.746Z,0.35
2018-03-01T13:42:52.594Z,0.57
2018-03-01T13:45:20.921Z,1.34
2018-03-01T13:47:49.985Z,2.90
2018-03-01T13:50:17.589Z,2.76
2018-03-01T13:52:45.362Z,1.18
2018-03-01T13:55:13.073Z,0.95
2018-03-01T13:57:40.755Z,0.52
2018-03-01T14:00:08.399Z,0.07
2018-03-01T14:02:36.209Z,0.09
2018-03-01T14:05:03.779Z,0.12
2018-03-01T14:07:35.828Z,-0.26
2018-03-01T14:10:04.003Z,-0.70
2018-03-01T14:12:37.281Z,-0.47
2018-03-01T14:15:06.254Z,-0.15
2018-03-01T14:17:36.407Z,-0.14
2018-03-01T14:23:14.479Z,-0.92
2018-03-01T14:25:42.115Z,-0.51
2018-03-01T14:28:12.870Z,-0.10
2018-03-01T14:30:40.652Z,-0.19
2018-03-01T14:33:09.181Z,-0.62
2018-03-01T14:35:36.735Z,-0.62
2018-03-01T14:38:04.328Z,-0.68
2018-03-01T14:40:31.966Z,-0.92
2018-03-01T14:42:59.675Z,-0.99
2018-03-01T14:45:27.510Z,-0.98
2018-03-01T14:47:55.353Z,-0.99
2018-03-01T14:50:23.305Z,-0.93
2018-03-01T14:52:51.161Z,-1.09
2018-03-01T14:55:18.818Z,-0.93
2018-03-01T14:57:46.565Z,-0.84
2018-03-01T15:00:14.239Z,-0.99
2018-03-01T15:02:42.241Z,-0.94
2018-03-01T15:05:09.900Z,-0.84
2018-03-01T15:07:37.645Z,-1.06
2018-03-01T15:10:05.763Z,-1.17
2018-03-01T15:12:33.321Z,-1.35
2018-03-01T15:15:01.155Z,-1.52
2018-03-01T15:17:28.760Z,-1.22
2018-03-01T15:19:56.408Z,-1.70
2018-03-01T15:22:24.044Z,-1.86
2018-03-01T15:24:52.328Z,-1.89
2018-03-01T15:27:20.060Z,-2.07
2018-03-01T15:29:48.381Z,-1.99
2018-03-01T15:32:15.956Z,-1.88
2018-03-01T15:34:43.631Z,-1.75
2018-03-01T15:37:11.518Z,-2.03
2018-03-01T15:39:39.055Z,-1.89
2018-03-01T15:42:06.760Z,-1.99
2018-03-01T15:44:34.523Z,-2.15
2018-03-01T15:47:02.514Z,-2.27
2018-03-01T15:49:30.092Z,-2.25
2018-03-01T15:51:57.732Z,-2.29
2018-03-01T15:54:25.418Z,-2.40
2018-03-01T15:56:52.926Z,-2.32
2018-03-01T15:59:20.755Z,-2.23
2018-03-01T16:01:48.444Z,-2.17
2018-03-01T16:04:16.245Z,-2.10
2018-03-01T16:06:43.911Z,-2.31
2018-03-01T16:09:11.565Z,-2.37
2018-03-01T16:11:39.974Z,-2.45
2018-03-01T16:14:07.584Z,-2.25
2018-03-01T16:16:35.286Z,-2.29
2018-03-01T16:19:03.550Z,-2.32
2018-03-01T16:21:31.339Z,-2.44
2018-03-01T16:23:59.090Z,-2.37
2018-03-01T16:26:26.758Z,-2.31
2018-03-01T16:28:54.515Z,-2.50
2018-03-01T16:31:22.384Z,-2.39
2018-03-01T16:33:50.013Z,-2.38
2018-03-01T16:36:17.954Z,-2.42
2018-03-01T16:38:47.323Z,-2.42
2018-03-01T16:41:15.074Z,-2.41
2018-03-01T16:43:42.753Z,-2.41
2018-03-01T16:46:10.665Z,-2.48
2018-03-01T16:48:38.515Z,-2.55
2018-03-01T16:51:06.233Z,-2.53
2018-03-01T16:53:33.870Z,-2.41
2018-03-01T16:56:01.576Z,-2.42
2018-03-01T16:58:29.245Z,-2.54
2018-03-01T17:00:57.179Z,-2.53
2018-03-01T17:03:24.805Z,-2.36
2018-03-01T17:05:52.379Z,-2.21
2018-03-01T17:08:20.874Z,-2.32
2018-03-01T17:10:48.496Z,-2.36
2018-03-01T17:13:17.074Z,-2.29
2018-03-01T17:15:44.796Z,-2.47
2018-03-01T17:18:12.590Z,-2.49
2018-03-01T17:20:40.259Z,-2.56
2018-03-01T17:23:08.503Z,-2.58
2018-03-01T17:25:36.141Z,-2.53
2018-03-01T17:28:03.780Z,-2.43
2018-03-01T17:30:31.440Z,-2.40
2018-03-01T17:32:59.041Z,-2.56
2018-03-01T17:35:26.848Z,-2.48
2018-03-01T17:37:55.394Z,-2.41
2018-03-01T17:40:23.106Z,-2.46
2018-03-01T17:42:50.679Z,-2.55
2018-03-01T17:45:18.544Z,-2.56
2018-03-01T17:47:46.281Z,-2.59
2018-03-01T17:50:13.846Z,-2.50
2018-03-01T17:52:41.709Z,-2.46
2018-03-01T17:55:09.470Z,-2.56
2018-03-01T17:57:37.069Z,-2.46
2018-03-01T18:00:04.790Z,-2.40
2018-03-01T18:02:33.936Z,-2.32
2018-03-01T18:05:01.491Z,-2.32
2018-03-01T18:07:29.179Z,-2.37
2018-03-01T18:09:57.043Z,-2.49
2018-03-01T18:12:24.990Z,-2.54
2018-03-01T18:14:52.813Z,-2.47
2018-03-01T18:17:20.552Z,-2.32
2018-03-01T18:19:48.325Z,-2.48
2018-03-01T18:22:16.283Z,-2.36
2018-03-01T18:24:44.268Z,-2.27
2018-03-01T18:27:11.844Z,-2.30
2018-03-01T18:29:39.419Z,-2.27
2018-03-01T18:32:07.286Z,-2.48
2018-03-01T18:34:35.030Z,-2.44
2018-03-01T18:37:02.606Z,-2.29
2018-03-01T18:39:30.300Z,-2.55
2018-03-01T18:41:57.913Z,-2.63
2018-03-01T18:44:25.630Z,-2.56
2018-03-01T18:46:53.668Z,-2.62
2018-03-01T18:49:21.353Z,-2.68
2018-03-01T18:51:51.043Z,-2.67
2018-03-01T18:54:20.193Z,-2.74
2018-03-01T18:56:50.079Z,-2.73
2018-03-01T18:59:18.871Z,-2.75
2018-03-01T19:01:47.723Z,-2.75
2018-03-01T19:04:16.956Z,-2.79
2018-03-01T19:06:45.843Z,-2.73
2018-03-01T19:09:15.701Z,-2.72
2018-03-01T19:11:44.845Z,-2.85
2018-03-01T19:14:12.548Z,-2.73
2018-03-01T19:16:40.175Z,-2.88
2018-03-01T19:19:07.764Z,-2.84
2018-03-01T19:21:35.366Z,-2.93
2018-03-01T19:24:03.487Z,-2.74
2018-03-01T19:26:31.332Z,-2.81
2018-03-01T19:28:59.061Z,-2.93
2018-03-01T19:31:26.680Z,-3.02
2018-03-01T19:33:54.421Z,-3.01
2018-03-01T19:36:22.029Z,-2.95
2018-03-01T19:38:49.755Z,-3.02
2018-03-01T19:41:17.565Z,-3.10
2018-03-01T19:43:45.506Z,-3.06
2018-03-01T19:46:13.803Z,-3.14
2018-03-01T19:48:41.441Z,-3.20
2018-03-01T19:51:09.212Z,-3.19
2018-03-01T19:53:37.053Z,-3.03
2018-03-01T19:56:04.863Z,-3.13
2018-03-01T19:58:32.554Z,-3.15
2018-03-01T20:01:00.356Z,-3.10
2018-03-01T20:03:28.019Z,-3.17
2018-03-01T20:05:55.683Z,-3.11
2018-03-01T20:08:23.639Z,-3.13
2018-03-01T20:10:51.349Z,-3.09
2018-03-01T20:13:18.933Z,-2.97
2018-03-01T20:15:46.638Z,-3.26
2018-03-01T20:18:14.296Z,-3.10
2018-03-01T20:20:42.025Z,-3.36
2018-03-01T20:23:09.588Z,-3.36
2018-03-01T20:25:37.226Z,-3.51
2018-03-01T20:28:05.136Z,-3.45
2018-03-01T20:30:33.553Z,-3.38
2018-03-01T20:33:01.445Z,-3.41
2018-03-01T20:35:29.509Z,-3.53
2018-03-01T20:37:57.114Z,-3.52
2018-03-01T20:40:24.801Z,-3.52
2018-03-01T20:42:52.363Z,-3.46
2018-03-01T20:45:20.104Z,-3.46
2018-03-01T20:47:47.865Z,-3.40
2018-03-01T20:50:15.644Z,-3.48
2018-03-01T20:52:43.279Z,-3.48
2018-03-01T20:55:10.907Z,-3.51
2018-03-01T20:57:38.614Z,-3.47
2018-03-01T21:00:06.449Z,-3.64
2018-03-01T21:02:34.298Z,-3.64
2018-03-01T21:05:02.006Z,-3.63
2018-03-01T21:07:29.878Z,-3.76
2018-03-01T21:09:57.636Z,-3.98
2018-03-01T21:12:25.305Z,-4.09
2018-03-01T21:14:53.475Z,-4.15
2018-03-01T21:17:21.901Z,-4.23
2018-03-01T21:19:49.567Z,-4.31
2018-03-01T21:22:18.229Z,-4.28
2018-03-01T21:24:45.835Z,-4.35
2018-03-01T21:27:13.514Z,-4.29
2018-03-01T21:29:41.086Z,-4.39
2018-03-01T21:32:08.656Z,-4.42
2018-03-01T21:34:36.510Z,-4.53
2018-03-01T21:37:04.079Z,-4.51
2018-03-01T21:39:32.504Z,-4.41
2018-03-01T21:42:00.280Z,-4.58
2018-03-01T21:44:27.881Z,-4.62
2018-03-01T21:47:07.600Z,-4.63
2018-03-01T21:49:35.375Z,-4.69
2018-03-01T21:52:03.090Z,-4.69
2018-03-01T21:54:30.766Z,-4.66
2018-03-01T21:56:58.573Z,-4.80
2018-03-01T21:59:26.274Z,-4.65
2018-03-01T22:01:54.208Z,-4.78
2018-03-01T22:04:21.838Z,-4.80
2018-03-01T22:06:50.444Z,-4.89
2018-03-01T22:09:18.156Z,-4.98
2018-03-01T22:11:45.914Z,-5.27
2018-03-01T22:14:13.576Z,-5.25
2018-03-01T22:16:41.190Z,-5.10
2018-03-01T22:19:09.034Z,-5.06
2018-03-01T22:21:37.891Z,-5.03
2018-03-01T22:24:05.519Z,-5.05
2018-03-01T22:26:33.088Z,-5.04
2018-03-01T22:29:00.856Z,-5.12
2018-03-01T22:31:28.668Z,-5.02
2018-03-01T22:33:56.710Z,-5.07
2018-03-01T22:36:24.524Z,-5.16
2018-03-01T22:38:53.705Z,-5.35
2018-03-01T22:41:21.397Z,-5.25
2018-03-01T22:43:49.072Z,-5.24
2018-03-01T22:46:16.741Z,-5.41
2018-03-01T22:48:44.416Z,-5.44
2018-03-01T22:51:12.150Z,-5.57
2018-03-01T22:53:39.686Z,-5.52
2018-03-01T22:56:07.356Z,-5.41
2018-03-01T22:58:35.089Z,-5.38
2018-03-01T23:01:03.321Z,-5.35
2018-03-01T23:03:31.025Z,-5.29
2018-03-01T23:05:59.550Z,-5.25
2018-03-01T23:08:27.180Z,-5.18
2018-03-01T23:10:54.820Z,-5.22
2018-03-01T23:13:22.395Z,-5.28
2018-03-01T23:15:50.079Z,-5.32
2018-03-01T23:18:17.645Z,-5.41
2018-03-01T23:20:45.441Z,-5.37
2018-03-01T23:23:12.993Z,-5.47
2018-03-01T23:25:40.688Z,-5.25
2018-03-01T23:28:08.846Z,-5.16
2018-03-01T23:30:36.500Z,-5.36
2018-03-01T23:33:04.085Z,-5.34
2018-03-01T23:35:31.793Z,-5.39
2018-03-01T23:37:59.409Z,-5.42
2018-03-01T23:40:27.190Z,-5.54
2018-03-01T23:42:54.854Z,-5.50
2018-03-01T23:45:22.473Z,-5.59
2018-03-01T23:47:50.144Z,-5.60
2018-03-01T23:50:17.925Z,-5.43
2018-03-01T23:52:45.610Z,-5.47
2018-03-01T23:55:13.175Z,-5.43
2018-03-01T23:57:40.729Z,-5.36
